Cape Cod — WBK3243 — position and weather

sailwx.info

Track history (hours):
 
Tides and Currents Weather Stations Pressure Air Temp Water Temp Dewpoint Dewpoint Depression Visibility Wind Speed Wind Dir Waves Ship Positions

Cape Cod

Owner: MORAN TOWING CORPORATION, New Canaan, CT. More information available from US FCC via Universal Licensing System and Coast Guard Vessel Documentation Center.

Last reported at 2015-Aug-29 12:33 UTC. Time now 2015-Aug-29 12:45 UTC.
Position N 39°51' W 075°15'.

Length 33 m; draft 4.8 m.

Type: Tug. MMSI: 366939770.

Date/timePositionNaut miles runAvg speedWind from/ knotsBaromVisibWave heightAir tempDewpointWater temp
2015-Aug-29 12:33N 39°51' W 075°15'4 3.9
2015-Aug-29 11:33N 39°53' W 075°11'0 0.0
2015-Aug-29 10:33N 39°53' W 075°11'0 0.0
2015-Aug-29 09:33N 39°53' W 075°11'0 0.0
2015-Aug-29 08:33N 39°53' W 075°11'0 0.0
2015-Aug-29 07:33N 39°53' W 075°11'5 5.0
2015-Aug-29 06:33N 39°58' W 075°08'0 0.5
2015-Aug-29 05:33N 39°57' W 075°08'4 4.5
2015-Aug-29 04:33N 39°53' W 075°11'0 0.0
2015-Aug-29 03:33N 39°53' W 075°11'0 0.0
2015-Aug-29 02:33N 39°53' W 075°11'0 0.0
2015-Aug-29 01:33N 39°53' W 075°11'0 0.0
2015-Aug-29 00:33N 39°53' W 075°11'0 0.0
2015-Aug-28 23:33N 39°53' W 075°11'0 0.0
2015-Aug-28 22:33N 39°53' W 075°11'3 3.0
2015-Aug-28 21:33N 39°52' W 075°14'9 9.2
2015-Aug-28 20:33N 39°48' W 075°25'1010.3
2015-Aug-28 19:33N 39°40' W 075°32'1010.2
2015-Aug-28 18:33N 39°29' W 075°34'1110.9
2015-Aug-28 17:33N 39°20' W 075°26'1111.5
2015-Aug-28 16:33N 39°11' W 075°17'1511.7
2015-Aug-28 15:17N 38°58' W 075°07'9 9.2
2015-Aug-28 14:17N 39°06' W 075°12'7 9.2
2015-Aug-28 13:33N 39°12' W 075°17'8 7.8
2015-Aug-28 12:33N 39°18' W 075°23'8 7.5
2015-Aug-28 11:33N 39°24' W 075°30'8 7.6
2015-Aug-28 10:33N 39°31' W 075°33'9 9.4
2015-Aug-28 09:33N 39°40' W 075°32'1110.8
2015-Aug-28 08:33N 39°49' W 075°23'1110.7
2015-Aug-28 07:33N 39°53' W 075°10'6 6.4
2015-Aug-28 06:33N 39°58' W 075°06'1 1.0
2015-Aug-28 05:33N 39°58' W 075°07'5 5.5
2015-Aug-28 04:33N 39°53' W 075°11'0 0.0
2015-Aug-28 03:33N 39°53' W 075°11'0 0.0
2015-Aug-28 02:33N 39°53' W 075°11'0 0.0
2015-Aug-28 01:33N 39°53' W 075°11'0 0.0
2015-Aug-28 00:33N 39°53' W 075°11'4 3.6
2015-Aug-27 23:33N 39°56' W 075°08'10 9.8
2015-Aug-27 22:33N 40°03' W 074°59'11 7.8
2015-Aug-27 21:07N 40°08' W 074°46'3 3.3
2015-Aug-27 20:21N 40°08' W 074°49'0 0.1
2015-Aug-27 18:27N 40°08' W 074°49'3 1.0
2015-Aug-27 15:32N 40°05' W 074°52'1010.7
2015-Aug-27 14:33N 40°00' W 075°03'9 9.0
2015-Aug-27 13:33N 39°53' W 075°11'1 0.6
2015-Aug-27 12:33N 39°53' W 075°11'1110.9
2015-Aug-27 11:33N 39°48' W 075°24'7 7.4
2015-Aug-27 10:33N 39°43' W 075°31'2 1.7
2015-Aug-27 09:33N 39°44' W 075°30'1110.7
2015-Aug-27 08:33N 39°51' W 075°19'7 6.6
2015-Aug-27 07:33N 39°53' W 075°11'0 0.0
2015-Aug-27 06:33N 39°53' W 075°11'0 0.0
2015-Aug-27 05:33N 39°53' W 075°11'0 0.0
2015-Aug-27 04:33N 39°53' W 075°11'0 0.0
2015-Aug-27 03:33N 39°53' W 075°11'0 0.0
2015-Aug-27 02:33N 39°53' W 075°11'0 0.0
2015-Aug-27 01:33N 39°53' W 075°11'0 0.0
2015-Aug-27 00:33N 39°53' W 075°11'0 0.0
2015-Aug-26 23:33N 39°53' W 075°11'0 0.0
2015-Aug-26 22:33N 39°53' W 075°11'0 0.0
2015-Aug-26 21:33N 39°53' W 075°11'6 5.8
2015-Aug-26 20:33N 39°58' W 075°07'6 5.8
2015-Aug-26 19:33N 39°53' W 075°10'7 7.4
2015-Aug-26 18:33N 39°51' W 075°19'7 7.4
2015-Aug-26 17:33N 39°47' W 075°28'8 7.6
2015-Aug-26 16:33N 39°40' W 075°32'7 6.9
2015-Aug-26 15:33N 39°33' W 075°32'8 7.7
2015-Aug-26 14:33N 39°25' W 075°31'9 8.8
2015-Aug-26 13:33N 39°19' W 075°24'20 9.0
2015-Aug-26 11:19N 39°02' W 075°09'7 9.4
2015-Aug-26 10:33N 38°55' W 075°06'8 7.1
2015-Aug-26 09:23N 39°03' W 075°10'1012.2
2015-Aug-26 08:33N 39°12' W 075°17'1413.7
2015-Aug-26 07:33N 39°22' W 075°28'1414.1
2015-Aug-26 06:33N 39°36' W 075°34'1414.3
2015-Aug-26 05:33N 39°48' W 075°25'1211.9
2015-Aug-26 04:33N 39°53' W 075°11'1 0.6
2015-Aug-26 03:33N 39°53' W 075°12'1 1.3
2015-Aug-26 02:33N 39°52' W 075°13'2 2.5
2015-Aug-26 01:33N 39°53' W 075°09'0 0.0
2015-Aug-26 00:33N 39°53' W 075°09'0 0.5
2015-Aug-25 23:33N 39°53' W 075°10'1 0.5
2015-Aug-25 22:33N 39°53' W 075°11'0 0.0
2015-Aug-25 21:33N 39°53' W 075°11'0 0.0
2015-Aug-25 20:33N 39°53' W 075°11'0 0.0
2015-Aug-25 19:33N 39°53' W 075°11'0 0.0
2015-Aug-25 18:33N 39°53' W 075°11'0 0.0
2015-Aug-25 17:33N 39°53' W 075°11'0 0.0
2015-Aug-25 16:33N 39°53' W 075°11'0 0.0
2015-Aug-25 15:33N 39°53' W 075°11'0 0.0
2015-Aug-25 14:33N 39°53' W 075°11'0 0.0
2015-Aug-25 13:33N 39°53' W 075°11'3 3.0
2015-Aug-25 12:33N 39°51' W 075°14'1 1.1
2015-Aug-25 11:33N 39°52' W 075°13'0 0.3
2015-Aug-25 10:33N 39°52' W 075°13'2 1.7
2015-Aug-25 09:33N 39°53' W 075°11'0 0.0
2015-Aug-25 08:33N 39°53' W 075°11'0 0.0
2015-Aug-25 07:33N 39°53' W 075°11'0 0.0
2015-Aug-25 06:33N 39°53' W 075°11'0 0.0
2015-Aug-25 05:33N 39°53' W 075°11'0 0.0
2015-Aug-25 04:33N 39°53' W 075°11'0 0.0
2015-Aug-25 03:33N 39°53' W 075°11'0 0.0
2015-Aug-25 02:33N 39°53' W 075°11'0 0.0
2015-Aug-25 01:33N 39°53' W 075°11'0 0.0
2015-Aug-25 00:33N 39°53' W 075°11'0 0.0
2015-Aug-24 23:33N 39°53' W 075°11'0 0.0
2015-Aug-24 22:33N 39°53' W 075°11'0 0.0
2015-Aug-24 21:33N 39°53' W 075°11'0 0.0
2015-Aug-24 20:33N 39°53' W 075°11'0 0.0
2015-Aug-24 19:33N 39°53' W 075°11'0 0.0
2015-Aug-24 18:33N 39°53' W 075°11'0 0.0
2015-Aug-24 17:33N 39°53' W 075°11'1 0.9
2015-Aug-24 16:33N 39°53' W 075°12'1 0.9
2015-Aug-24 15:33N 39°53' W 075°11'0 0.0
2015-Aug-24 14:33N 39°53' W 075°11'0 0.0
2015-Aug-24 13:33N 39°53' W 075°11'0 0.0
2015-Aug-24 12:33N 39°53' W 075°11'0 0.2
2015-Aug-24 11:33N 39°53' W 075°11'0 0.4
2015-Aug-24 10:33N 39°53' W 075°10'0 0.5
2015-Aug-24 09:33N 39°53' W 075°11'0 0.0
2015-Aug-24 08:33N 39°53' W 075°11'6 6.1
2015-Aug-24 07:33N 39°51' W 075°18'1010.4
2015-Aug-24 06:33N 39°45' W 075°29'1110.6
2015-Aug-24 05:33N 39°35' W 075°34'1110.7
2015-Aug-24 04:33N 39°25' W 075°31'1111.3
2015-Aug-24 03:33N 39°16' W 075°21'1211.7
2015-Aug-24 02:33N 39°06' W 075°12'9 8.7
2015-Aug-24 01:31N 38°58' W 075°07'1010.4
2015-Aug-24 00:31N 39°08' W 075°13'1010.1
2015-Aug-23 23:33N 39°16' W 075°20'9 9.1
2015-Aug-23 22:33N 39°22' W 075°28'7 7.3
2015-Aug-23 21:33N 39°28' W 075°34'7 7.0
2015-Aug-23 20:33N 39°35' W 075°34'6 6.4
2015-Aug-23 19:33N 39°41' W 075°31'8 8.1
2015-Aug-23 18:33N 39°48' W 075°25'10 9.9
2015-Aug-23 17:33N 39°52' W 075°13'8 8.3
2015-Aug-23 16:33N 39°58' W 075°06'0 0.3
2015-Aug-23 15:33N 39°58' W 075°07'0 0.0
2015-Aug-23 14:33N 39°58' W 075°07'4 3.9
2015-Aug-23 13:33N 39°54' W 075°08'0 0.2
2015-Aug-23 12:33N 39°54' W 075°08'2 2.5
2015-Aug-23 11:33N 39°53' W 075°11'0 0.0
2015-Aug-23 10:33N 39°53' W 075°11'0 0.0
2015-Aug-23 09:33N 39°53' W 075°11'3 3.0
2015-Aug-23 08:33N 39°51' W 075°14'1 0.9
2015-Aug-23 07:33N 39°52' W 075°13'2 2.1
2015-Aug-23 06:33N 39°53' W 075°11'0 0.0
2015-Aug-23 05:33N 39°53' W 075°11'0 0.0
2015-Aug-23 04:33N 39°53' W 075°11'0 0.0
2015-Aug-23 03:33N 39°53' W 075°11'0 0.0
2015-Aug-23 02:33N 39°53' W 075°11'0 0.1
2015-Aug-23 01:33N 39°53' W 075°11'8 7.8
2015-Aug-23 00:33N 39°51' W 075°20'0 0.0
2015-Aug-22 23:33N 39°51' W 075°20'7 7.3
2015-Aug-22 22:33N 39°53' W 075°11'1 0.6
2015-Aug-22 21:33N 39°53' W 075°11'0 0.0
2015-Aug-22 20:33N 39°53' W 075°11'0 0.0
2015-Aug-22 19:33N 39°53' W 075°11'0 0.0
2015-Aug-22 18:33N 39°53' W 075°11'2 2.0
2015-Aug-22 17:33N 39°54' W 075°08'4 4.4
2015-Aug-22 16:33N 39°58' W 075°07'4 3.7
2015-Aug-22 15:33N 39°54' W 075°08'7 7.0
2015-Aug-22 14:33N 39°51' W 075°16'7 7.0
2015-Aug-22 13:33N 39°49' W 075°24'7 7.4
2015-Aug-22 12:33N 39°43' W 075°30'7 7.4
2015-Aug-22 11:33N 39°36' W 075°34'8 7.8
2015-Aug-22 10:33N 39°28' W 075°34'8 8.4
2015-Aug-22 09:33N 39°22' W 075°27'21 9.3
2015-Aug-22 07:18N 39°05' W 075°11'7 9.6
2015-Aug-22 06:33N 38°58' W 075°08'5 4.5
2015-Aug-22 05:27N 39°03' W 075°10'1112.4
2015-Aug-22 04:33N 39°13' W 075°17'1413.7
2015-Aug-22 03:33N 39°23' W 075°29'1413.7
2015-Aug-22 02:33N 39°36' W 075°34'1414.3
2015-Aug-22 01:33N 39°48' W 075°25'1211.7
2015-Aug-22 00:34N 39°53' W 075°11'0 0.1
2015-Aug-21 23:34N 39°53' W 075°11'0 0.0
2015-Aug-21 22:34N 39°53' W 075°11'0 0.0
2015-Aug-21 21:34N 39°53' W 075°11'0 0.0
2015-Aug-21 20:34N 39°53' W 075°11'0 0.0
2015-Aug-21 19:34N 39°53' W 075°11'0 0.0
2015-Aug-21 18:34N 39°53' W 075°11'0 0.0
2015-Aug-21 17:34N 39°53' W 075°11'0 0.0
2015-Aug-21 16:33N 39°53' W 075°11'0 0.0
2015-Aug-21 15:34N 39°53' W 075°11'0 0.0
2015-Aug-21 14:34N 39°53' W 075°11'0 0.0
2015-Aug-21 13:34N 39°53' W 075°11'0 0.0
2015-Aug-21 12:34N 39°53' W 075°11'0 0.0
2015-Aug-21 11:33N 39°53' W 075°11'0 0.0
2015-Aug-21 10:33N 39°53' W 075°11'0 0.0
2015-Aug-21 09:34N 39°53' W 075°11'0 0.0
2015-Aug-21 08:34N 39°53' W 075°11'0 0.0
2015-Aug-21 07:34N 39°53' W 075°11'0 0.0
2015-Aug-21 06:34N 39°53' W 075°11'2 2.1
2015-Aug-21 05:34N 39°54' W 075°08'2 2.2
2015-Aug-21 04:34N 39°53' W 075°11'2 2.0
2015-Aug-21 03:33N 39°54' W 075°08'0 0.0
2015-Aug-21 02:33N 39°54' W 075°08'5 5.0
2015-Aug-21 01:34N 39°58' W 075°06'1111.4
2015-Aug-21 00:33N 40°05' W 074°53'7 6.9
2015-Aug-20 23:32N 40°08' W 074°45'3 0.9
2015-Aug-20 20:25N 40°08' W 074°49'910.7
2015-Aug-20 19:33N 40°02' W 074°59'1010.0
2015-Aug-20 18:33N 39°55' W 075°08'3 2.8
2015-Aug-20 17:33N 39°53' W 075°11'0 0.0
2015-Aug-20 16:33N 39°53' W 075°11'0 0.0
2015-Aug-20 15:33N 39°53' W 075°11'0 0.0
2015-Aug-20 14:33N 39°53' W 075°11'0 0.0
2015-Aug-20 13:33N 39°53' W 075°11'0 0.0
2015-Aug-20 12:33N 39°53' W 075°11'2 1.8
2015-Aug-20 11:33N 39°54' W 075°08'5 5.4
2015-Aug-20 10:33N 39°59' W 075°06'0 0.3
2015-Aug-20 09:33N 39°59' W 075°06'0 0.3
2015-Aug-20 08:33N 39°59' W 075°06'0 0.0
2015-Aug-20 07:33N 39°59' W 075°06'0 0.0
2015-Aug-20 06:33N 39°59' W 075°06'0 0.0
2015-Aug-20 05:33N 39°59' W 075°06'0 0.0
2015-Aug-20 04:33N 39°59' W 075°06'0 0.0
2015-Aug-20 03:33N 39°59' W 075°06'4 3.7
2015-Aug-20 02:33N 40°01' W 075°02'10 9.4
2015-Aug-20 01:32N 40°06' W 074°51'1 1.4
2015-Aug-20 00:32N 40°07' W 074°50'6 6.7
2015-Aug-19 23:33N 40°03' W 074°57'1010.2
2015-Aug-19 22:33N 39°57' W 075°08'5 4.6
2015-Aug-19 21:33N 39°53' W 075°11'0 0.0
2015-Aug-19 20:33N 39°53' W 075°11'0 0.0
2015-Aug-19 19:33N 39°53' W 075°11'2 1.7
2015-Aug-19 18:33N 39°53' W 075°08'6 5.9
2015-Aug-19 17:33N 39°59' W 075°06'1 1.3
2015-Aug-19 16:33N 39°58' W 075°07'1 1.2
2015-Aug-19 15:33N 39°59' W 075°06'6 6.3
2015-Aug-19 14:33N 39°53' W 075°09'1 1.3
2015-Aug-19 13:33N 39°53' W 075°11'0 0.0
2015-Aug-19 12:33N 39°53' W 075°11'  
Track history (hours):
 
Tides and Currents Weather Stations Pressure Air Temp Water Temp Dewpoint Dewpoint Depression Visibility Wind Speed Wind Dir Waves Ship Positions

Cape Cod

Owner: MORAN TOWING CORPORATION, New Canaan, CT. More information available from US FCC via Universal Licensing System and Coast Guard Vessel Documentation Center.

Last reported at 2015-Aug-29 12:33 UTC. Time now 2015-Aug-29 12:45 UTC.
Position N 39°51' W 075°15'.

Length 33 m; draft 4.8 m.

Type: Tug. MMSI: 366939770.

Date/timePositionNaut miles runAvg speedWind from/ knotsBaromVisibWave heightAir tempDewpointWater temp
2015-Aug-29 12:33N 39°51' W 075°15'4 3.9
2015-Aug-29 11:33N 39°53' W 075°11'0 0.0
2015-Aug-29 10:33N 39°53' W 075°11'0 0.0
2015-Aug-29 09:33N 39°53' W 075°11'0 0.0
2015-Aug-29 08:33N 39°53' W 075°11'0 0.0
2015-Aug-29 07:33N 39°53' W 075°11'5 5.0
2015-Aug-29 06:33N 39°58' W 075°08'0 0.5
2015-Aug-29 05:33N 39°57' W 075°08'4 4.5
2015-Aug-29 04:33N 39°53' W 075°11'0 0.0
2015-Aug-29 03:33N 39°53' W 075°11'0 0.0
2015-Aug-29 02:33N 39°53' W 075°11'0 0.0
2015-Aug-29 01:33N 39°53' W 075°11'0 0.0
2015-Aug-29 00:33N 39°53' W 075°11'0 0.0
2015-Aug-28 23:33N 39°53' W 075°11'0 0.0
2015-Aug-28 22:33N 39°53' W 075°11'3 3.0
2015-Aug-28 21:33N 39°52' W 075°14'9 9.2
2015-Aug-28 20:33N 39°48' W 075°25'1010.3
2015-Aug-28 19:33N 39°40' W 075°32'1010.2
2015-Aug-28 18:33N 39°29' W 075°34'1110.9
2015-Aug-28 17:33N 39°20' W 075°26'1111.5
2015-Aug-28 16:33N 39°11' W 075°17'1511.7
2015-Aug-28 15:17N 38°58' W 075°07'9 9.2
2015-Aug-28 14:17N 39°06' W 075°12'7 9.2
2015-Aug-28 13:33N 39°12' W 075°17'8 7.8
2015-Aug-28 12:33N 39°18' W 075°23'8 7.5
2015-Aug-28 11:33N 39°24' W 075°30'8 7.6
2015-Aug-28 10:33N 39°31' W 075°33'9 9.4
2015-Aug-28 09:33N 39°40' W 075°32'1110.8
2015-Aug-28 08:33N 39°49' W 075°23'1110.7
2015-Aug-28 07:33N 39°53' W 075°10'6 6.4
2015-Aug-28 06:33N 39°58' W 075°06'1 1.0
2015-Aug-28 05:33N 39°58' W 075°07'5 5.5
2015-Aug-28 04:33N 39°53' W 075°11'0 0.0
2015-Aug-28 03:33N 39°53' W 075°11'0 0.0
2015-Aug-28 02:33N 39°53' W 075°11'0 0.0
2015-Aug-28 01:33N 39°53' W 075°11'0 0.0
2015-Aug-28 00:33N 39°53' W 075°11'4 3.6
2015-Aug-27 23:33N 39°56' W 075°08'10 9.8
2015-Aug-27 22:33N 40°03' W 074°59'11 7.8
2015-Aug-27 21:07N 40°08' W 074°46'3 3.3
2015-Aug-27 20:21N 40°08' W 074°49'0 0.1
2015-Aug-27 18:27N 40°08' W 074°49'3 1.0
2015-Aug-27 15:32N 40°05' W 074°52'1010.7
2015-Aug-27 14:33N 40°00' W 075°03'9 9.0
2015-Aug-27 13:33N 39°53' W 075°11'1 0.6
2015-Aug-27 12:33N 39°53' W 075°11'1110.9
2015-Aug-27 11:33N 39°48' W 075°24'7 7.4
2015-Aug-27 10:33N 39°43' W 075°31'2 1.7
2015-Aug-27 09:33N 39°44' W 075°30'1110.7
2015-Aug-27 08:33N 39°51' W 075°19'7 6.6
2015-Aug-27 07:33N 39°53' W 075°11'0 0.0
2015-Aug-27 06:33N 39°53' W 075°11'0 0.0
2015-Aug-27 05:33N 39°53' W 075°11'0 0.0
2015-Aug-27 04:33N 39°53' W 075°11'0 0.0
2015-Aug-27 03:33N 39°53' W 075°11'0 0.0
2015-Aug-27 02:33N 39°53' W 075°11'0 0.0
2015-Aug-27 01:33N 39°53' W 075°11'0 0.0
2015-Aug-27 00:33N 39°53' W 075°11'0 0.0
2015-Aug-26 23:33N 39°53' W 075°11'0 0.0
2015-Aug-26 22:33N 39°53' W 075°11'0 0.0
2015-Aug-26 21:33N 39°53' W 075°11'6 5.8
2015-Aug-26 20:33N 39°58' W 075°07'6 5.8
2015-Aug-26 19:33N 39°53' W 075°10'7 7.4
2015-Aug-26 18:33N 39°51' W 075°19'7 7.4
2015-Aug-26 17:33N 39°47' W 075°28'8 7.6
2015-Aug-26 16:33N 39°40' W 075°32'7 6.9
2015-Aug-26 15:33N 39°33' W 075°32'8 7.7
2015-Aug-26 14:33N 39°25' W 075°31'9 8.8
2015-Aug-26 13:33N 39°19' W 075°24'20 9.0
2015-Aug-26 11:19N 39°02' W 075°09'7 9.4
2015-Aug-26 10:33N 38°55' W 075°06'8 7.1
2015-Aug-26 09:23N 39°03' W 075°10'1012.2
2015-Aug-26 08:33N 39°12' W 075°17'1413.7
2015-Aug-26 07:33N 39°22' W 075°28'1414.1
2015-Aug-26 06:33N 39°36' W 075°34'1414.3
2015-Aug-26 05:33N 39°48' W 075°25'1211.9
2015-Aug-26 04:33N 39°53' W 075°11'1 0.6
2015-Aug-26 03:33N 39°53' W 075°12'1 1.3
2015-Aug-26 02:33N 39°52' W 075°13'2 2.5
2015-Aug-26 01:33N 39°53' W 075°09'0 0.0
2015-Aug-26 00:33N 39°53' W 075°09'0 0.5
2015-Aug-25 23:33N 39°53' W 075°10'1 0.5
2015-Aug-25 22:33N 39°53' W 075°11'0 0.0
2015-Aug-25 21:33N 39°53' W 075°11'0 0.0
2015-Aug-25 20:33N 39°53' W 075°11'0 0.0
2015-Aug-25 19:33N 39°53' W 075°11'0 0.0
2015-Aug-25 18:33N 39°53' W 075°11'0 0.0
2015-Aug-25 17:33N 39°53' W 075°11'0 0.0
2015-Aug-25 16:33N 39°53' W 075°11'0 0.0
2015-Aug-25 15:33N 39°53' W 075°11'0 0.0
2015-Aug-25 14:33N 39°53' W 075°11'0 0.0
2015-Aug-25 13:33N 39°53' W 075°11'3 3.0
2015-Aug-25 12:33N 39°51' W 075°14'1 1.1
2015-Aug-25 11:33N 39°52' W 075°13'0 0.3
2015-Aug-25 10:33N 39°52' W 075°13'2 1.7
2015-Aug-25 09:33N 39°53' W 075°11'0 0.0
2015-Aug-25 08:33N 39°53' W 075°11'0 0.0
2015-Aug-25 07:33N 39°53' W 075°11'0 0.0
2015-Aug-25 06:33N 39°53' W 075°11'0 0.0
2015-Aug-25 05:33N 39°53' W 075°11'0 0.0
2015-Aug-25 04:33N 39°53' W 075°11'0 0.0
2015-Aug-25 03:33N 39°53' W 075°11'0 0.0
2015-Aug-25 02:33N 39°53' W 075°11'0 0.0
2015-Aug-25 01:33N 39°53' W 075°11'0 0.0
2015-Aug-25 00:33N 39°53' W 075°11'0 0.0
2015-Aug-24 23:33N 39°53' W 075°11'0 0.0
2015-Aug-24 22:33N 39°53' W 075°11'0 0.0
2015-Aug-24 21:33N 39°53' W 075°11'0 0.0
2015-Aug-24 20:33N 39°53' W 075°11'0 0.0
2015-Aug-24 19:33N 39°53' W 075°11'0 0.0
2015-Aug-24 18:33N 39°53' W 075°11'0 0.0
2015-Aug-24 17:33N 39°53' W 075°11'1 0.9
2015-Aug-24 16:33N 39°53' W 075°12'1 0.9
2015-Aug-24 15:33N 39°53' W 075°11'0 0.0
2015-Aug-24 14:33N 39°53' W 075°11'0 0.0
2015-Aug-24 13:33N 39°53' W 075°11'0 0.0
2015-Aug-24 12:33N 39°53' W 075°11'0 0.2
2015-Aug-24 11:33N 39°53' W 075°11'0 0.4
2015-Aug-24 10:33N 39°53' W 075°10'0 0.5
2015-Aug-24 09:33N 39°53' W 075°11'0 0.0
2015-Aug-24 08:33N 39°53' W 075°11'6 6.1
2015-Aug-24 07:33N 39°51' W 075°18'1010.4
2015-Aug-24 06:33N 39°45' W 075°29'1110.6
2015-Aug-24 05:33N 39°35' W 075°34'1110.7
2015-Aug-24 04:33N 39°25' W 075°31'1111.3
2015-Aug-24 03:33N 39°16' W 075°21'1211.7
2015-Aug-24 02:33N 39°06' W 075°12'9 8.7
2015-Aug-24 01:31N 38°58' W 075°07'1010.4
2015-Aug-24 00:31N 39°08' W 075°13'1010.1
2015-Aug-23 23:33N 39°16' W 075°20'9 9.1
2015-Aug-23 22:33N 39°22' W 075°28'7 7.3
2015-Aug-23 21:33N 39°28' W 075°34'7 7.0
2015-Aug-23 20:33N 39°35' W 075°34'6 6.4
2015-Aug-23 19:33N 39°41' W 075°31'8 8.1
2015-Aug-23 18:33N 39°48' W 075°25'10 9.9
2015-Aug-23 17:33N 39°52' W 075°13'8 8.3
2015-Aug-23 16:33N 39°58' W 075°06'0 0.3
2015-Aug-23 15:33N 39°58' W 075°07'0 0.0
2015-Aug-23 14:33N 39°58' W 075°07'4 3.9
2015-Aug-23 13:33N 39°54' W 075°08'0 0.2
2015-Aug-23 12:33N 39°54' W 075°08'2 2.5
2015-Aug-23 11:33N 39°53' W 075°11'0 0.0
2015-Aug-23 10:33N 39°53' W 075°11'0 0.0
2015-Aug-23 09:33N 39°53' W 075°11'3 3.0
2015-Aug-23 08:33N 39°51' W 075°14'1 0.9
2015-Aug-23 07:33N 39°52' W 075°13'2 2.1
2015-Aug-23 06:33N 39°53' W 075°11'0 0.0
2015-Aug-23 05:33N 39°53' W 075°11'0 0.0
2015-Aug-23 04:33N 39°53' W 075°11'0 0.0
2015-Aug-23 03:33N 39°53' W 075°11'0 0.0
2015-Aug-23 02:33N 39°53' W 075°11'0 0.1
2015-Aug-23 01:33N 39°53' W 075°11'8 7.8
2015-Aug-23 00:33N 39°51' W 075°20'0 0.0
2015-Aug-22 23:33N 39°51' W 075°20'7 7.3
2015-Aug-22 22:33N 39°53' W 075°11'1 0.6
2015-Aug-22 21:33N 39°53' W 075°11'0 0.0
2015-Aug-22 20:33N 39°53' W 075°11'0 0.0
2015-Aug-22 19:33N 39°53' W 075°11'0 0.0
2015-Aug-22 18:33N 39°53' W 075°11'2 2.0
2015-Aug-22 17:33N 39°54' W 075°08'4 4.4
2015-Aug-22 16:33N 39°58' W 075°07'4 3.7
2015-Aug-22 15:33N 39°54' W 075°08'7 7.0
2015-Aug-22 14:33N 39°51' W 075°16'7 7.0
2015-Aug-22 13:33N 39°49' W 075°24'7 7.4
2015-Aug-22 12:33N 39°43' W 075°30'7 7.4
2015-Aug-22 11:33N 39°36' W 075°34'8 7.8
2015-Aug-22 10:33N 39°28' W 075°34'8 8.4
2015-Aug-22 09:33N 39°22' W 075°27'21 9.3
2015-Aug-22 07:18N 39°05' W 075°11'7 9.6
2015-Aug-22 06:33N 38°58' W 075°08'5 4.5
2015-Aug-22 05:27N 39°03' W 075°10'1112.4
2015-Aug-22 04:33N 39°13' W 075°17'1413.7
2015-Aug-22 03:33N 39°23' W 075°29'1413.7
2015-Aug-22 02:33N 39°36' W 075°34'1414.3
2015-Aug-22 01:33N 39°48' W 075°25'1211.7
2015-Aug-22 00:34N 39°53' W 075°11'0 0.1
2015-Aug-21 23:34N 39°53' W 075°11'0 0.0
2015-Aug-21 22:34N 39°53' W 075°11'0 0.0
2015-Aug-21 21:34N 39°53' W 075°11'0 0.0
2015-Aug-21 20:34N 39°53' W 075°11'0 0.0
2015-Aug-21 19:34N 39°53' W 075°11'0 0.0
2015-Aug-21 18:34N 39°53' W 075°11'0 0.0
2015-Aug-21 17:34N 39°53' W 075°11'0 0.0
2015-Aug-21 16:33N 39°53' W 075°11'0 0.0
2015-Aug-21 15:34N 39°53' W 075°11'0 0.0
2015-Aug-21 14:34N 39°53' W 075°11'0 0.0
2015-Aug-21 13:34N 39°53' W 075°11'0 0.0
2015-Aug-21 12:34N 39°53' W 075°11'0 0.0
2015-Aug-21 11:33N 39°53' W 075°11'0 0.0
2015-Aug-21 10:33N 39°53' W 075°11'0 0.0
2015-Aug-21 09:34N 39°53' W 075°11'0 0.0
2015-Aug-21 08:34N 39°53' W 075°11'0 0.0
2015-Aug-21 07:34N 39°53' W 075°11'0 0.0
2015-Aug-21 06:34N 39°53' W 075°11'2 2.1
2015-Aug-21 05:34N 39°54' W 075°08'2 2.2
2015-Aug-21 04:34N 39°53' W 075°11'2 2.0
2015-Aug-21 03:33N 39°54' W 075°08'0 0.0
2015-Aug-21 02:33N 39°54' W 075°08'5 5.0
2015-Aug-21 01:34N 39°58' W 075°06'1111.4
2015-Aug-21 00:33N 40°05' W 074°53'7 6.9
2015-Aug-20 23:32N 40°08' W 074°45'3 0.9
2015-Aug-20 20:25N 40°08' W 074°49'910.7
2015-Aug-20 19:33N 40°02' W 074°59'1010.0
2015-Aug-20 18:33N 39°55' W 075°08'3 2.8
2015-Aug-20 17:33N 39°53' W 075°11'0 0.0
2015-Aug-20 16:33N 39°53' W 075°11'0 0.0
2015-Aug-20 15:33N 39°53' W 075°11'0 0.0
2015-Aug-20 14:33N 39°53' W 075°11'0 0.0
2015-Aug-20 13:33N 39°53' W 075°11'0 0.0
2015-Aug-20 12:33N 39°53' W 075°11'2 1.8
2015-Aug-20 11:33N 39°54' W 075°08'5 5.4
2015-Aug-20 10:33N 39°59' W 075°06'0 0.3
2015-Aug-20 09:33N 39°59' W 075°06'0 0.3
2015-Aug-20 08:33N 39°59' W 075°06'0 0.0
2015-Aug-20 07:33N 39°59' W 075°06'0 0.0
2015-Aug-20 06:33N 39°59' W 075°06'0 0.0
2015-Aug-20 05:33N 39°59' W 075°06'0 0.0
2015-Aug-20 04:33N 39°59' W 075°06'0 0.0
2015-Aug-20 03:33N 39°59' W 075°06'4 3.7
2015-Aug-20 02:33N 40°01' W 075°02'10 9.4
2015-Aug-20 01:32N 40°06' W 074°51'1 1.4
2015-Aug-20 00:32N 40°07' W 074°50'6 6.7
2015-Aug-19 23:33N 40°03' W 074°57'1010.2
2015-Aug-19 22:33N 39°57' W 075°08'5 4.6
2015-Aug-19 21:33N 39°53' W 075°11'0 0.0
2015-Aug-19 20:33N 39°53' W 075°11'0 0.0
2015-Aug-19 19:33N 39°53' W 075°11'2 1.7
2015-Aug-19 18:33N 39°53' W 075°08'6 5.9
2015-Aug-19 17:33N 39°59' W 075°06'1 1.3
2015-Aug-19 16:33N 39°58' W 075°07'1 1.2
2015-Aug-19 15:33N 39°59' W 075°06'6 6.3
2015-Aug-19 14:33N 39°53' W 075°09'1 1.3
2015-Aug-19 13:33N 39°53' W 075°11'0 0.0
2015-Aug-19 12:33N 39°53' W 075°11'  

Dump ship's entire track history